sensor_id;sensor_type;location;lat;lon;timestamp;temperature;humidity
17740;DHT22;8990;33.226;-97.150;2022-08-21T00:00:30;32.60;99.90
17740;DHT22;8990;33.226;-97.150;2022-08-21T00:03:02;32.50;99.90
17740;DHT22;8990;33.226;-97.150;2022-08-21T00:05:35;32.50;99.90
17740;DHT22;8990;33.226;-97.150;2022-08-21T00:08:05;32.40;99.90
17740;DHT22;8990;33.226;-97.150;2022-08-21T00:10:35;32.40;99.90
17740;DHT22;8990;33.226;-97.150;2022-08-21T00:13:06;32.30;99.90
17740;DHT22;8990;33.226;-97.150;2022-08-21T00:15:37;32.20;99.90
17740;DHT22;8990;33.226;-97.150;2022-08-21T00:18:09;32.20;99.90
17740;DHT22;8990;33.226;-97.150;2022-08-21T00:20:41;32.10;99.90
17740;DHT22;8990;33.226;-97.150;2022-08-21T00:23:10;32.10;99.90
17740;DHT22;8990;33.226;-97.150;2022-08-21T00:25:41;32.00;99.90
17740;DHT22;8990;33.226;-97.150;2022-08-21T00:28:12;32.10;99.90
17740;DHT22;8990;33.226;-97.150;2022-08-21T00:30:42;32.00;99.90
17740;DHT22;8990;33.226;-97.150;2022-08-21T00:33:12;32.00;99.90
17740;DHT22;8990;33.226;-97.150;2022-08-21T00:35:43;32.00;99.90
17740;DHT22;8990;33.226;-97.150;2022-08-21T00:38:12;32.00;99.90
17740;DHT22;8990;33.226;-97.150;2022-08-21T00:40:45;32.00;99.90
17740;DHT22;8990;33.226;-97.150;2022-08-21T00:43:19;31.90;99.90
17740;DHT22;8990;33.226;-97.150;2022-08-21T00:45:49;31.90;99.90
17740;DHT22;8990;33.226;-97.150;2022-08-21T00:48:21;31.90;99.90
17740;DHT22;8990;33.226;-97.150;2022-08-21T00:50:54;31.80;99.90
17740;DHT22;8990;33.226;-97.150;2022-08-21T00:53:25;31.80;99.90
17740;DHT22;8990;33.226;-97.150;2022-08-21T00:55:56;31.80;99.90
17740;DHT22;8990;33.226;-97.150;2022-08-21T00:58:28;31.80;99.90
17740;DHT22;8990;33.226;-97.150;2022-08-21T01:01:00;31.70;99.90
17740;DHT22;8990;33.226;-97.150;2022-08-21T01:03:30;31.60;99.90
17740;DHT22;8990;33.226;-97.150;2022-08-21T01:05:59;31.60;99.90
17740;DHT22;8990;33.226;-97.150;2022-08-21T01:08:30;31.50;99.90
17740;DHT22;8990;33.226;-97.150;2022-08-21T01:11:00;31.50;99.90
17740;DHT22;8990;33.226;-97.150;2022-08-21T01:13:35;31.50;99.90
17740;DHT22;8990;33.226;-97.150;2022-08-21T01:16:09;31.40;99.90
17740;DHT22;8990;33.226;-97.150;2022-08-21T01:18:39;31.40;99.90
17740;DHT22;8990;33.226;-97.150;2022-08-21T01:21:11;31.40;99.90
17740;DHT22;8990;33.226;-97.150;2022-08-21T01:23:43;31.30;99.90
17740;DHT22;8990;33.226;-97.150;2022-08-21T01:26:15;31.30;99.90
17740;DHT22;8990;33.226;-97.150;2022-08-21T01:28:50;31.20;99.90
17740;DHT22;8990;33.226;-97.150;2022-08-21T01:31:23;31.20;99.90
17740;DHT22;8990;33.226;-97.150;2022-08-21T01:33:54;31.20;99.90
17740;DHT22;8990;33.226;-97.150;2022-08-21T01:36:26;31.20;99.90
17740;DHT22;8990;33.226;-97.150;2022-08-21T01:38:56;31.20;99.90
17740;DHT22;8990;33.226;-97.150;2022-08-21T01:41:25;31.30;99.90
17740;DHT22;8990;33.226;-97.150;2022-08-21T01:43:54;31.20;99.90
17740;DHT22;8990;33.226;-97.150;2022-08-21T01:46:24;31.10;99.90
17740;DHT22;8990;33.226;-97.150;2022-08-21T01:48:54;31.10;99.90
17740;DHT22;8990;33.226;-97.150;2022-08-21T01:51:25;31.10;99.90
17740;DHT22;8990;33.226;-97.150;2022-08-21T01:53:54;30.90;99.90
17740;DHT22;8990;33.226;-97.150;2022-08-21T01:56:25;30.90;99.90
17740;DHT22;8990;33.226;-97.150;2022-08-21T01:58:54;30.80;99.90
17740;DHT22;8990;33.226;-97.150;2022-08-21T02:01:24;30.80;99.90
17740;DHT22;8990;33.226;-97.150;2022-08-21T02:03:54;30.80;99.90
17740;DHT22;8990;33.226;-97.150;2022-08-21T02:06:25;30.70;99.90
17740;DHT22;8990;33.226;-97.150;2022-08-21T02:08:55;30.70;99.90
17740;DHT22;8990;33.226;-97.150;2022-08-21T02:11:24;30.70;99.90
17740;DHT22;8990;33.226;-97.150;2022-08-21T02:13:54;30.80;99.90
17740;DHT22;8990;33.226;-97.150;2022-08-21T02:16:23;30.80;99.90
17740;DHT22;8990;33.226;-97.150;2022-08-21T02:18:52;30.80;99.90
17740;DHT22;8990;33.226;-97.150;2022-08-21T02:21:22;30.80;99.90
17740;DHT22;8990;33.226;-97.150;2022-08-21T02:23:53;30.90;99.90
17740;DHT22;8990;33.226;-97.150;2022-08-21T02:26:23;31.00;99.90
17740;DHT22;8990;33.226;-97.150;2022-08-21T02:28:53;31.10;99.90
17740;DHT22;8990;33.226;-97.150;2022-08-21T02:31:23;31.10;99.90
17740;DHT22;8990;33.226;-97.150;2022-08-21T02:33:52;31.10;99.90
17740;DHT22;8990;33.226;-97.150;2022-08-21T02:36:22;31.20;99.90
17740;DHT22;8990;33.226;-97.150;2022-08-21T02:38:53;31.10;99.90
17740;DHT22;8990;33.226;-97.150;2022-08-21T02:41:23;31.10;99.90
17740;DHT22;8990;33.226;-97.150;2022-08-21T02:43:52;31.10;99.90
17740;DHT22;8990;33.226;-97.150;2022-08-21T02:46:22;31.10;99.90
17740;DHT22;8990;33.226;-97.150;2022-08-21T02:48:51;31.10;99.90
17740;DHT22;8990;33.226;-97.150;2022-08-21T02:51:21;31.00;99.90
17740;DHT22;8990;33.226;-97.150;2022-08-21T02:53:53;30.90;99.90
17740;DHT22;8990;33.226;-97.150;2022-08-21T02:56:24;30.80;99.90
17740;DHT22;8990;33.226;-97.150;2022-08-21T02:58:54;30.80;99.90
17740;DHT22;8990;33.226;-97.150;2022-08-21T03:01:24;30.70;99.90
17740;DHT22;8990;33.226;-97.150;2022-08-21T03:03:53;30.70;99.90
17740;DHT22;8990;33.226;-97.150;2022-08-21T03:06:23;30.70;99.90
17740;DHT22;8990;33.226;-97.150;2022-08-21T03:08:54;30.60;99.90
17740;DHT22;8990;33.226;-97.150;2022-08-21T03:11:24;30.40;99.90
17740;DHT22;8990;33.226;-97.150;2022-08-21T03:13:53;30.30;99.90
17740;DHT22;8990;33.226;-97.150;2022-08-21T03:16:23;30.30;99.90
17740;DHT22;8990;33.226;-97.150;2022-08-21T03:18:53;30.30;99.90
17740;DHT22;8990;33.226;-97.150;2022-08-21T03:21:22;30.20;99.90
17740;DHT22;8990;33.226;-97.150;2022-08-21T03:23:53;30.10;99.90
17740;DHT22;8990;33.226;-97.150;2022-08-21T03:26:23;30.10;99.90
17740;DHT22;8990;33.226;-97.150;2022-08-21T03:28:52;30.00;99.90
17740;DHT22;8990;33.226;-97.150;2022-08-21T03:31:24;29.90;99.90
17740;DHT22;8990;33.226;-97.150;2022-08-21T03:33:55;29.80;99.90
17740;DHT22;8990;33.226;-97.150;2022-08-21T03:36:25;29.70;99.90
17740;DHT22;8990;33.226;-97.150;2022-08-21T03:38:56;29.60;99.90
17740;DHT22;8990;33.226;-97.150;2022-08-21T03:41:25;29.50;99.90
17740;DHT22;8990;33.226;-97.150;2022-08-21T03:43:55;29.50;99.90
17740;DHT22;8990;33.226;-97.150;2022-08-21T03:46:25;29.40;99.90
17740;DHT22;8990;33.226;-97.150;2022-08-21T03:48:54;29.30;99.90
17740;DHT22;8990;33.226;-97.150;2022-08-21T03:51:24;29.30;99.90
17740;DHT22;8990;33.226;-97.150;2022-08-21T03:53:55;29.20;99.90
17740;DHT22;8990;33.226;-97.150;2022-08-21T03:56:24;29.10;99.90
17740;DHT22;8990;33.226;-97.150;2022-08-21T03:58:54;29.10;99.90
17740;DHT22;8990;33.226;-97.150;2022-08-21T04:01:24;29.10;99.90
17740;DHT22;8990;33.226;-97.150;2022-08-21T04:03:53;29.10;99.90
17740;DHT22;8990;33.226;-97.150;2022-08-21T04:06:22;29.00;99.90
17740;DHT22;8990;33.226;-97.150;2022-08-21T04:08:54;29.10;99.90
17740;DHT22;8990;33.226;-97.150;2022-08-21T04:11:24;29.10;99.90
17740;DHT22;8990;33.226;-97.150;2022-08-21T04:13:53;29.00;99.90
17740;DHT22;8990;33.226;-97.150;2022-08-21T04:16:22;28.90;99.90
17740;DHT22;8990;33.226;-97.150;2022-08-21T04:18:51;29.00;99.90
17740;DHT22;8990;33.226;-97.150;2022-08-21T04:21:21;28.90;99.90
17740;DHT22;8990;33.226;-97.150;2022-08-21T04:23:51;29.00;99.90
17740;DHT22;8990;33.226;-97.150;2022-08-21T04:26:23;28.90;99.90
17740;DHT22;8990;33.226;-97.150;2022-08-21T04:28:53;28.80;99.90
17740;DHT22;8990;33.226;-97.150;2022-08-21T04:31:23;28.80;99.90
17740;DHT22;8990;33.226;-97.150;2022-08-21T04:33:52;28.80;99.90
17740;DHT22;8990;33.226;-97.150;2022-08-21T04:36:22;28.60;99.90
17740;DHT22;8990;33.226;-97.150;2022-08-21T04:38:51;28.60;99.90
17740;DHT22;8990;33.226;-97.150;2022-08-21T04:41:21;28.60;99.90
17740;DHT22;8990;33.226;-97.150;2022-08-21T04:43:51;28.60;99.90
17740;DHT22;8990;33.226;-97.150;2022-08-21T04:46:22;28.60;99.90
17740;DHT22;8990;33.226;-97.150;2022-08-21T04:48:51;28.60;99.90
17740;DHT22;8990;33.226;-97.150;2022-08-21T04:51:24;28.60;99.90
17740;DHT22;8990;33.226;-97.150;2022-08-21T04:53:57;28.60;99.90
17740;DHT22;8990;33.226;-97.150;2022-08-21T04:56:33;28.60;99.90
17740;DHT22;8990;33.226;-97.150;2022-08-21T04:59:06;28.60;99.90
17740;DHT22;8990;33.226;-97.150;2022-08-21T05:01:40;28.60;99.90
17740;DHT22;8990;33.226;-97.150;2022-08-21T05:04:12;28.70;99.90
17740;DHT22;8990;33.226;-97.150;2022-08-21T05:06:44;28.70;99.90
17740;DHT22;8990;33.226;-97.150;2022-08-21T05:09:16;28.60;99.90
17740;DHT22;8990;33.226;-97.150;2022-08-21T05:11:47;28.60;99.90
17740;DHT22;8990;33.226;-97.150;2022-08-21T05:14:20;28.60;99.90
17740;DHT22;8990;33.226;-97.150;2022-08-21T05:16:49;28.50;99.90
17740;DHT22;8990;33.226;-97.150;2022-08-21T05:19:18;28.60;99.90
17740;DHT22;8990;33.226;-97.150;2022-08-21T05:21:48;28.50;99.90
17740;DHT22;8990;33.226;-97.150;2022-08-21T05:24:17;28.40;99.90
17740;DHT22;8990;33.226;-97.150;2022-08-21T05:26:47;28.30;99.90
17740;DHT22;8990;33.226;-97.150;2022-08-21T05:29:16;28.30;99.90
17740;DHT22;8990;33.226;-97.150;2022-08-21T05:31:48;28.30;99.90
17740;DHT22;8990;33.226;-97.150;2022-08-21T05:34:20;28.20;99.90
17740;DHT22;8990;33.226;-97.150;2022-08-21T05:36:51;28.10;99.90
17740;DHT22;8990;33.226;-97.150;2022-08-21T05:39:21;28.10;99.90
17740;DHT22;8990;33.226;-97.150;2022-08-21T05:41:50;28.00;99.90
17740;DHT22;8990;33.226;-97.150;2022-08-21T05:44:20;28.00;99.90
17740;DHT22;8990;33.226;-97.150;2022-08-21T05:46:50;28.00;99.90
17740;DHT22;8990;33.226;-97.150;2022-08-21T05:49:20;28.00;99.90
17740;DHT22;8990;33.226;-97.150;2022-08-21T05:51:49;28.00;99.90
17740;DHT22;8990;33.226;-97.150;2022-08-21T05:54:18;28.10;99.90
17740;DHT22;8990;33.226;-97.150;2022-08-21T05:56:47;28.00;99.90
17740;DHT22;8990;33.226;-97.150;2022-08-21T05:59:17;27.90;99.90
17740;DHT22;8990;33.226;-97.150;2022-08-21T06:01:46;28.00;99.90
17740;DHT22;8990;33.226;-97.150;2022-08-21T06:04:20;28.00;99.90
17740;DHT22;8990;33.226;-97.150;2022-08-21T06:06:50;27.90;99.90
17740;DHT22;8990;33.226;-97.150;2022-08-21T06:09:19;28.00;99.90
17740;DHT22;8990;33.226;-97.150;2022-08-21T06:11:48;27.90;99.90
17740;DHT22;8990;33.226;-97.150;2022-08-21T06:14:18;27.80;99.90
17740;DHT22;8990;33.226;-97.150;2022-08-21T06:16:47;27.80;99.90
17740;DHT22;8990;33.226;-97.150;2022-08-21T06:19:16;27.80;99.90
17740;DHT22;8990;33.226;-97.150;2022-08-21T06:21:47;27.80;99.90
17740;DHT22;8990;33.226;-97.150;2022-08-21T06:24:17;27.70;99.90
17740;DHT22;8990;33.226;-97.150;2022-08-21T06:26:46;27.70;99.90
17740;DHT22;8990;33.226;-97.150;2022-08-21T06:29:17;27.70;99.90
17740;DHT22;8990;33.226;-97.150;2022-08-21T06:31:47;27.60;99.90
17740;DHT22;8990;33.226;-97.150;2022-08-21T06:34:17;27.60;99.90
17740;DHT22;8990;33.226;-97.150;2022-08-21T06:36:48;27.60;99.90
17740;DHT22;8990;33.226;-97.150;2022-08-21T06:39:18;27.60;99.90
17740;DHT22;8990;33.226;-97.150;2022-08-21T06:41:46;27.60;99.90
17740;DHT22;8990;33.226;-97.150;2022-08-21T06:44:17;27.60;99.90
17740;DHT22;8990;33.226;-97.150;2022-08-21T06:46:46;27.50;99.90
17740;DHT22;8990;33.226;-97.150;2022-08-21T06:49:16;27.50;99.90
17740;DHT22;8990;33.226;-97.150;2022-08-21T06:51:47;27.50;99.90
17740;DHT22;8990;33.226;-97.150;2022-08-21T06:54:16;27.50;99.90
17740;DHT22;8990;33.226;-97.150;2022-08-21T06:56:46;27.50;99.90
17740;DHT22;8990;33.226;-97.150;2022-08-21T06:59:15;27.50;99.90
17740;DHT22;8990;33.226;-97.150;2022-08-21T07:01:44;27.50;99.90
17740;DHT22;8990;33.226;-97.150;2022-08-21T07:04:14;27.60;99.90
17740;DHT22;8990;33.226;-97.150;2022-08-21T07:06:43;27.60;99.90
17740;DHT22;8990;33.226;-97.150;2022-08-21T07:09:15;27.60;99.90
17740;DHT22;8990;33.226;-97.150;2022-08-21T07:11:49;27.70;99.90
17740;DHT22;8990;33.226;-97.150;2022-08-21T07:14:19;27.70;99.90
17740;DHT22;8990;33.226;-97.150;2022-08-21T07:16:49;27.70;99.90
17740;DHT22;8990;33.226;-97.150;2022-08-21T07:19:19;27.50;99.90
17740;DHT22;8990;33.226;-97.150;2022-08-21T07:21:48;27.50;99.90
17740;DHT22;8990;33.226;-97.150;2022-08-21T07:24:19;27.50;99.90
17740;DHT22;8990;33.226;-97.150;2022-08-21T07:26:49;27.50;99.90
17740;DHT22;8990;33.226;-97.150;2022-08-21T07:29:18;27.50;99.90
17740;DHT22;8990;33.226;-97.150;2022-08-21T07:31:47;27.50;99.90
17740;DHT22;8990;33.226;-97.150;2022-08-21T07:34:16;27.50;99.90
17740;DHT22;8990;33.226;-97.150;2022-08-21T07:36:46;27.50;99.90
17740;DHT22;8990;33.226;-97.150;2022-08-21T07:39:15;27.40;99.90
17740;DHT22;8990;33.226;-97.150;2022-08-21T07:41:46;27.50;99.90
17740;DHT22;8990;33.226;-97.150;2022-08-21T07:44:16;27.40;99.90
17740;DHT22;8990;33.226;-97.150;2022-08-21T07:46:46;27.40;99.90
17740;DHT22;8990;33.226;-97.150;2022-08-21T07:49:15;27.40;99.90
17740;DHT22;8990;33.226;-97.150;2022-08-21T07:51:45;27.40;99.90
17740;DHT22;8990;33.226;-97.150;2022-08-21T07:54:14;27.40;99.90
17740;DHT22;8990;33.226;-97.150;2022-08-21T07:56:45;27.30;99.90
17740;DHT22;8990;33.226;-97.150;2022-08-21T07:59:14;27.30;99.90
17740;DHT22;8990;33.226;-97.150;2022-08-21T08:01:45;27.30;99.90
17740;DHT22;8990;33.226;-97.150;2022-08-21T08:04:15;27.40;99.90
17740;DHT22;8990;33.226;-97.150;2022-08-21T08:06:44;27.30;99.90
17740;DHT22;8990;33.226;-97.150;2022-08-21T08:09:13;27.30;99.90
17740;DHT22;8990;33.226;-97.150;2022-08-21T08:11:45;27.30;99.90
17740;DHT22;8990;33.226;-97.150;2022-08-21T08:14:14;27.20;99.90
17740;DHT22;8990;33.226;-97.150;2022-08-21T08:16:44;27.30;99.90
17740;DHT22;8990;33.226;-97.150;2022-08-21T08:19:14;27.30;99.90
17740;DHT22;8990;33.226;-97.150;2022-08-21T08:21:43;27.20;99.90
17740;DHT22;8990;33.226;-97.150;2022-08-21T08:24:13;27.30;99.90
17740;DHT22;8990;33.226;-97.150;2022-08-21T08:26:44;27.30;99.90
17740;DHT22;8990;33.226;-97.150;2022-08-21T08:29:15;27.20;99.90
17740;DHT22;8990;33.226;-97.150;2022-08-21T08:31:44;27.20;99.90
17740;DHT22;8990;33.226;-97.150;2022-08-21T08:34:13;27.30;99.90
17740;DHT22;8990;33.226;-97.150;2022-08-21T08:36:43;27.20;99.90
17740;DHT22;8990;33.226;-97.150;2022-08-21T08:39:13;27.30;99.90
17740;DHT22;8990;33.226;-97.150;2022-08-21T08:41:46;27.20;99.90
17740;DHT22;8990;33.226;-97.150;2022-08-21T08:44:18;27.20;99.90
17740;DHT22;8990;33.226;-97.150;2022-08-21T08:46:48;27.20;99.90
17740;DHT22;8990;33.226;-97.150;2022-08-21T08:49:20;27.20;99.90
17740;DHT22;8990;33.226;-97.150;2022-08-21T08:52:00;27.10;99.90
17740;DHT22;8990;33.226;-97.150;2022-08-21T08:54:33;27.10;99.90
17740;DHT22;8990;33.226;-97.150;2022-08-21T08:57:10;27.10;99.90
17740;DHT22;8990;33.226;-97.150;2022-08-21T08:59:43;27.10;99.90
17740;DHT22;8990;33.226;-97.150;2022-08-21T09:02:15;27.10;99.90
17740;DHT22;8990;33.226;-97.150;2022-08-21T09:04:47;27.20;99.90
17740;DHT22;8990;33.226;-97.150;2022-08-21T09:07:27;27.20;99.90
17740;DHT22;8990;33.226;-97.150;2022-08-21T09:10:10;27.10;99.90
17740;DHT22;8990;33.226;-97.150;2022-08-21T09:12:49;27.10;99.90
17740;DHT22;8990;33.226;-97.150;2022-08-21T09:15:29;27.10;99.90
17740;DHT22;8990;33.226;-97.150;2022-08-21T09:18:18;27.10;99.90
17740;DHT22;8990;33.226;-97.150;2022-08-21T09:20:58;27.10;99.90
17740;DHT22;8990;33.226;-97.150;2022-08-21T09:23:43;27.00;99.90
17740;DHT22;8990;33.226;-97.150;2022-08-21T09:26:16;27.00;99.90
17740;DHT22;8990;33.226;-97.150;2022-08-21T09:28:53;27.00;99.90
17740;DHT22;8990;33.226;-97.150;2022-08-21T09:31:25;27.00;99.90
17740;DHT22;8990;33.226;-97.150;2022-08-21T09:34:02;27.00;99.90
17740;DHT22;8990;33.226;-97.150;2022-08-21T09:36:37;27.10;99.90
17740;DHT22;8990;33.226;-97.150;2022-08-21T09:39:08;27.00;99.90
17740;DHT22;8990;33.226;-97.150;2022-08-21T09:41:39;27.10;99.90
17740;DHT22;8990;33.226;-97.150;2022-08-21T09:44:10;27.10;99.90
17740;DHT22;8990;33.226;-97.150;2022-08-21T09:46:50;27.10;99.90
17740;DHT22;8990;33.226;-97.150;2022-08-21T09:49:28;27.10;99.90
17740;DHT22;8990;33.226;-97.150;2022-08-21T09:51:58;27.20;99.90
17740;DHT22;8990;33.226;-97.150;2022-08-21T09:54:31;27.10;99.90
17740;DHT22;8990;33.226;-97.150;2022-08-21T09:57:05;27.10;99.90
17740;DHT22;8990;33.226;-97.150;2022-08-21T10:00:10;27.00;99.90
17740;DHT22;8990;33.226;-97.150;2022-08-21T10:02:40;27.00;99.90
17740;DHT22;8990;33.226;-97.150;2022-08-21T10:05:20;27.00;99.90
17740;DHT22;8990;33.226;-97.150;2022-08-21T10:07:50;26.90;99.90
17740;DHT22;8990;33.226;-97.150;2022-08-21T10:10:21;27.00;99.90
17740;DHT22;8990;33.226;-97.150;2022-08-21T10:12:58;27.00;99.90
17740;DHT22;8990;33.226;-97.150;2022-08-21T10:15:40;27.00;99.90
17740;DHT22;8990;33.226;-97.150;2022-08-21T10:18:16;27.00;99.90
17740;DHT22;8990;33.226;-97.150;2022-08-21T10:20:54;27.00;99.90
17740;DHT22;8990;33.226;-97.150;2022-08-21T10:23:34;27.00;99.90
17740;DHT22;8990;33.226;-97.150;2022-08-21T10:26:11;26.90;99.90
17740;DHT22;8990;33.226;-97.150;2022-08-21T10:28:48;26.90;99.90
17740;DHT22;8990;33.226;-97.150;2022-08-21T10:31:42;26.90;99.90
17740;DHT22;8990;33.226;-97.150;2022-08-21T10:34:26;26.90;99.90
17740;DHT22;8990;33.226;-97.150;2022-08-21T10:37:10;26.90;99.90
17740;DHT22;8990;33.226;-97.150;2022-08-21T10:39:49;26.90;99.90
17740;DHT22;8990;33.226;-97.150;2022-08-21T10:42:31;26.90;99.90
17740;DHT22;8990;33.226;-97.150;2022-08-21T10:45:10;26.90;99.90
17740;DHT22;8990;33.226;-97.150;2022-08-21T10:47:49;26.90;99.90
17740;DHT22;8990;33.226;-97.150;2022-08-21T10:50:28;26.90;99.90
17740;DHT22;8990;33.226;-97.150;2022-08-21T10:53:29;26.80;99.90
17740;DHT22;8990;33.226;-97.150;2022-08-21T10:56:05;26.80;99.90
17740;DHT22;8990;33.226;-97.150;2022-08-21T10:58:46;26.80;99.90
17740;DHT22;8990;33.226;-97.150;2022-08-21T11:01:22;26.80;99.90
17740;DHT22;8990;33.226;-97.150;2022-08-21T11:04:09;26.80;99.90
17740;DHT22;8990;33.226;-97.150;2022-08-21T11:06:44;26.80;99.90
17740;DHT22;8990;33.226;-97.150;2022-08-21T11:09:17;26.90;99.90
17740;DHT22;8990;33.226;-97.150;2022-08-21T11:11:52;26.90;99.90
17740;DHT22;8990;33.226;-97.150;2022-08-21T11:14:40;26.80;99.90
17740;DHT22;8990;33.226;-97.150;2022-08-21T11:17:13;26.90;99.90
17740;DHT22;8990;33.226;-97.150;2022-08-21T11:19:50;26.80;99.90
17740;DHT22;8990;33.226;-97.150;2022-08-21T11:22:26;26.80;99.90
17740;DHT22;8990;33.226;-97.150;2022-08-21T11:25:00;26.80;99.90
17740;DHT22;8990;33.226;-97.150;2022-08-21T11:27:38;26.80;99.90
17740;DHT22;8990;33.226;-97.150;2022-08-21T11:30:10;26.80;99.90
17740;DHT22;8990;33.226;-97.150;2022-08-21T11:33:03;26.80;99.90
17740;DHT22;8990;33.226;-97.150;2022-08-21T11:35:42;26.80;99.90
17740;DHT22;8990;33.226;-97.150;2022-08-21T11:38:26;26.80;99.90
17740;DHT22;8990;33.226;-97.150;2022-08-21T11:41:07;26.80;99.90
17740;DHT22;8990;33.226;-97.150;2022-08-21T11:43:43;26.70;99.90
17740;DHT22;8990;33.226;-97.150;2022-08-21T11:46:28;26.70;99.90
17740;DHT22;8990;33.226;-97.150;2022-08-21T11:49:06;26.70;99.90
17740;DHT22;8990;33.226;-97.150;2022-08-21T11:51:40;26.70;99.90
17740;DHT22;8990;33.226;-97.150;2022-08-21T11:54:23;26.60;99.90
17740;DHT22;8990;33.226;-97.150;2022-08-21T11:56:57;26.60;99.90
17740;DHT22;8990;33.226;-97.150;2022-08-21T11:59:38;26.60;99.90
17740;DHT22;8990;33.226;-97.150;2022-08-21T12:02:12;26.60;99.90
17740;DHT22;8990;33.226;-97.150;2022-08-21T12:04:46;26.60;99.90
17740;DHT22;8990;33.226;-97.150;2022-08-21T12:07:29;26.60;99.90
17740;DHT22;8990;33.226;-97.150;2022-08-21T12:10:00;26.60;99.90
17740;DHT22;8990;33.226;-97.150;2022-08-21T12:12:32;26.50;99.90
17740;DHT22;8990;33.226;-97.150;2022-08-21T12:15:25;26.50;99.90
17740;DHT22;8990;33.226;-97.150;2022-08-21T12:17:58;26.50;99.90
17740;DHT22;8990;33.226;-97.150;2022-08-21T12:20:37;26.50;99.90
17740;DHT22;8990;33.226;-97.150;2022-08-21T12:23:23;26.50;99.90
17740;DHT22;8990;33.226;-97.150;2022-08-21T12:26:03;26.50;99.90
17740;DHT22;8990;33.226;-97.150;2022-08-21T12:28:40;26.40;99.90
17740;DHT22;8990;33.226;-97.150;2022-08-21T12:31:22;26.40;99.90
17740;DHT22;8990;33.226;-97.150;2022-08-21T12:33:55;26.40;99.90
17740;DHT22;8990;33.226;-97.150;2022-08-21T12:36:42;26.50;99.90
17740;DHT22;8990;33.226;-97.150;2022-08-21T12:39:20;26.50;99.90
17740;DHT22;8990;33.226;-97.150;2022-08-21T12:41:55;26.60;99.90
17740;DHT22;8990;33.226;-97.150;2022-08-21T12:44:31;26.60;99.90
17740;DHT22;8990;33.226;-97.150;2022-08-21T12:47:06;26.60;99.90
17740;DHT22;8990;33.226;-97.150;2022-08-21T12:49:48;26.70;99.90
17740;DHT22;8990;33.226;-97.150;2022-08-21T12:52:23;26.70;99.90
17740;DHT22;8990;33.226;-97.150;2022-08-21T12:54:54;26.80;99.90
17740;DHT22;8990;33.226;-97.150;2022-08-21T12:57:25;26.90;99.90
17740;DHT22;8990;33.226;-97.150;2022-08-21T12:59:57;26.80;99.90
17740;DHT22;8990;33.226;-97.150;2022-08-21T13:02:30;26.80;99.90
17740;DHT22;8990;33.226;-97.150;2022-08-21T13:05:03;26.80;99.90
17740;DHT22;8990;33.226;-97.150;2022-08-21T13:07:35;26.70;99.90
17740;DHT22;8990;33.226;-97.150;2022-08-21T13:10:16;26.80;99.90
17740;DHT22;8990;33.226;-97.150;2022-08-21T13:12:47;26.80;99.90
17740;DHT22;8990;33.226;-97.150;2022-08-21T13:15:24;26.80;99.90
17740;DHT22;8990;33.226;-97.150;2022-08-21T13:17:55;26.80;99.90
17740;DHT22;8990;33.226;-97.150;2022-08-21T13:20:31;26.80;99.90
17740;DHT22;8990;33.226;-97.150;2022-08-21T13:23:01;26.80;99.90
17740;DHT22;8990;33.226;-97.150;2022-08-21T13:25:35;26.80;99.90
17740;DHT22;8990;33.226;-97.150;2022-08-21T13:28:08;26.80;99.90
17740;DHT22;8990;33.226;-97.150;2022-08-21T13:30:40;26.70;99.90
17740;DHT22;8990;33.226;-97.150;2022-08-21T13:33:12;26.80;99.90
17740;DHT22;8990;33.226;-97.150;2022-08-21T13:35:51;26.80;99.90
17740;DHT22;8990;33.226;-97.150;2022-08-21T13:38:24;26.90;99.90
17740;DHT22;8990;33.226;-97.150;2022-08-21T13:40:57;26.90;99.90
17740;DHT22;8990;33.226;-97.150;2022-08-21T13:43:34;26.90;99.90
17740;DHT22;8990;33.226;-97.150;2022-08-21T13:46:09;27.00;99.90
17740;DHT22;8990;33.226;-97.150;2022-08-21T13:48:39;27.00;99.90
17740;DHT22;8990;33.226;-97.150;2022-08-21T13:51:09;27.00;99.90
17740;DHT22;8990;33.226;-97.150;2022-08-21T13:53:46;27.10;99.90
17740;DHT22;8990;33.226;-97.150;2022-08-21T13:56:26;27.10;99.90
17740;DHT22;8990;33.226;-97.150;2022-08-21T13:58:57;27.00;99.90
17740;DHT22;8990;33.226;-97.150;2022-08-21T14:01:30;27.00;99.90
17740;DHT22;8990;33.226;-97.150;2022-08-21T14:04:04;27.10;99.90
17740;DHT22;8990;33.226;-97.150;2022-08-21T14:06:36;27.10;99.90
17740;DHT22;8990;33.226;-97.150;2022-08-21T14:09:12;27.10;99.90
17740;DHT22;8990;33.226;-97.150;2022-08-21T14:11:44;27.00;99.90
17740;DHT22;8990;33.226;-97.150;2022-08-21T14:14:21;27.10;99.90
17740;DHT22;8990;33.226;-97.150;2022-08-21T14:16:56;27.10;99.90
17740;DHT22;8990;33.226;-97.150;2022-08-21T14:19:36;27.00;99.90
17740;DHT22;8990;33.226;-97.150;2022-08-21T14:22:30;27.10;99.90
17740;DHT22;8990;33.226;-97.150;2022-08-21T14:25:03;27.10;99.90
17740;DHT22;8990;33.226;-97.150;2022-08-21T14:27:37;27.10;99.90
17740;DHT22;8990;33.226;-97.150;2022-08-21T14:30:19;27.00;99.90
17740;DHT22;8990;33.226;-97.150;2022-08-21T14:32:49;27.00;99.90
17740;DHT22;8990;33.226;-97.150;2022-08-21T14:35:19;27.00;99.90
17740;DHT22;8990;33.226;-97.150;2022-08-21T14:37:49;27.00;99.90
17740;DHT22;8990;33.226;-97.150;2022-08-21T14:40:21;27.00;99.90
17740;DHT22;8990;33.226;-97.150;2022-08-21T14:42:52;27.10;99.90
17740;DHT22;8990;33.226;-97.150;2022-08-21T14:45:26;27.10;99.90
17740;DHT22;8990;33.226;-97.150;2022-08-21T14:47:57;27.10;99.90
17740;DHT22;8990;33.226;-97.150;2022-08-21T14:50:27;27.00;99.90
17740;DHT22;8990;33.226;-97.150;2022-08-21T14:52:57;26.90;99.90
17740;DHT22;8990;33.226;-97.150;2022-08-21T14:55:26;26.70;99.90
17740;DHT22;8990;33.226;-97.150;2022-08-21T14:57:58;26.50;99.90
17740;DHT22;8990;33.226;-97.150;2022-08-21T15:00:29;26.40;99.90
17740;DHT22;8990;33.226;-97.150;2022-08-21T15:02:59;26.10;99.90
17740;DHT22;8990;33.226;-97.150;2022-08-21T15:05:28;26.10;99.90
17740;DHT22;8990;33.226;-97.150;2022-08-21T15:07:58;25.90;99.90
17740;DHT22;8990;33.226;-97.150;2022-08-21T15:10:27;25.80;99.90
17740;DHT22;8990;33.226;-97.150;2022-08-21T15:12:58;25.70;99.90
17740;DHT22;8990;33.226;-97.150;2022-08-21T15:15:28;25.70;99.90
17740;DHT22;8990;33.226;-97.150;2022-08-21T15:17:58;25.60;99.90
17740;DHT22;8990;33.226;-97.150;2022-08-21T15:20:27;25.40;99.90
17740;DHT22;8990;33.226;-97.150;2022-08-21T15:22:57;25.20;99.90
17740;DHT22;8990;33.226;-97.150;2022-08-21T15:25:26;25.30;99.90
17740;DHT22;8990;33.226;-97.150;2022-08-21T15:27:58;25.30;99.90
17740;DHT22;8990;33.226;-97.150;2022-08-21T15:30:30;25.40;99.90
17740;DHT22;8990;33.226;-97.150;2022-08-21T15:33:00;25.40;99.90
17740;DHT22;8990;33.226;-97.150;2022-08-21T15:35:29;25.40;99.90
17740;DHT22;8990;33.226;-97.150;2022-08-21T15:37:59;25.40;99.90
17740;DHT22;8990;33.226;-97.150;2022-08-21T15:40:28;25.50;99.90
17740;DHT22;8990;33.226;-97.150;2022-08-21T15:43:01;25.50;99.90
17740;DHT22;8990;33.226;-97.150;2022-08-21T15:45:32;25.50;99.90
17740;DHT22;8990;33.226;-97.150;2022-08-21T15:48:02;25.60;99.90